Time;durP1;ratioP1;P1;durP2;ratioP2;P2;SDS_P1;SDS_P2;PMS_P1;PMS_P2;Temp;Humidity;BMP_temperature;BMP_pressure;BME280_temperature;BME280_humidity;BME280_pressure;Samples;Min_cycle;Max_cycle;Signal;HPM_P1;HPM_P2
2021/07/17 00:00:27;;;;;;;17.55;3.28;;;;;;;16.08;54.33;102348.63;5030188;28;20033;-70
2021/07/17 00:02:53;;;;;;;18.55;3.95;;;;;;;16.08;54.32;102353.06;5015799;23;20137;-68
2021/07/17 00:05:18;;;;;;;29.90;5.00;;;;;;;16.08;54.28;102350.41;5000649;28;20868;-68
2021/07/17 00:07:45;;;;;;;20.58;3.00;;;;;;;16.09;54.36;102354.78;5009923;28;20021;-68
2021/07/17 00:10:14;;;;;;;16.48;2.80;;;;;;;16.16;54.25;102361.53;5020820;28;20087;-68
2021/07/17 00:12:41;;;;;;;23.45;3.55;;;;;;;15.80;55.12;102362.88;5013115;28;20491;-68
2021/07/17 00:15:08;;;;;;;25.50;3.88;;;;;;;16.15;54.10;102371.22;4989295;28;20332;-67
2021/07/17 00:17:33;;;;;;;14.98;3.08;;;;;;;16.04;54.50;102369.91;4990203;28;20037;-68
2021/07/17 00:19:59;;;;;;;17.35;3.80;;;;;;;16.15;54.34;102370.34;4992364;28;20040;-67
2021/07/17 00:22:24;;;;;;;15.70;2.85;;;;;;;16.00;54.66;102364.78;5008473;28;20060;-68
2021/07/17 00:24:50;;;;;;;14.57;3.42;;;;;;;16.03;54.38;102369.06;5006295;28;20124;-68
2021/07/17 00:27:15;;;;;;;19.63;2.78;;;;;;;15.99;54.80;102377.97;4989401;28;20049;-68
2021/07/17 00:29:43;;;;;;;21.65;3.35;;;;;;;16.06;54.11;102365.44;4992497;28;20514;-68
2021/07/17 00:32:08;;;;;;;17.48;3.28;;;;;;;16.15;53.98;102368.59;4992790;28;20091;-67
2021/07/17 00:34:34;;;;;;;18.85;3.88;;;;;;;16.02;54.47;102370.00;4990374;28;20034;-67
2021/07/17 00:36:59;;;;;;;12.10;3.40;;;;;;;15.95;54.82;102377.25;4989959;28;20038;-68
2021/07/17 00:39:25;;;;;;;6.68;2.95;;;;;;;16.03;54.36;102370.84;5008597;28;20057;-68
2021/07/17 00:41:53;;;;;;;14.63;3.55;;;;;;;16.10;54.23;102380.22;5011057;28;20075;-68
2021/07/17 00:44:18;;;;;;;21.90;3.28;;;;;;;15.96;54.31;102386.88;4991986;28;20664;-68
2021/07/17 00:46:45;;;;;;;13.60;2.83;;;;;;;15.96;54.28;102381.59;5011387;28;20117;-68
2021/07/17 00:49:10;;;;;;;17.73;3.38;;;;;;;16.12;53.85;102391.56;5010433;28;20033;-68
2021/07/17 00:51:36;;;;;;;13.85;3.10;;;;;;;16.03;54.34;102391.94;4997526;28;20542;-68
2021/07/17 00:54:02;;;;;;;12.52;2.90;;;;;;;15.96;54.51;102392.16;5013096;28;20392;-68
2021/07/17 00:56:29;;;;;;;23.38;4.03;;;;;;;15.80;55.00;102398.94;4982292;28;20030;-68
2021/07/17 00:59:00;;;;;;;15.25;2.50;;;;;;;15.69;55.46;102387.94;5012082;28;20603;-67
2021/07/17 01:01:28;;;;;;;15.20;3.15;;;;;;;16.04;54.22;102399.81;5006432;28;20044;-68
2021/07/17 01:03:55;;;;;;;10.30;2.83;;;;;;;16.04;54.22;102393.66;5011857;28;20161;-68
2021/07/17 01:06:21;;;;;;;8.05;2.60;;;;;;;15.89;54.46;102398.59;5010409;28;20972;-68
2021/07/17 01:08:47;;;;;;;22.40;3.25;;;;;;;15.85;55.05;102396.97;5007917;28;21617;-69
2021/07/17 01:11:13;;;;;;;12.13;2.50;;;;;;;15.72;55.38;102393.09;5010538;28;20034;-68
2021/07/17 01:13:38;;;;;;;14.60;2.40;;;;;;;16.03;54.33;102392.78;4999198;28;20033;-68
2021/07/17 01:16:04;;;;;;;16.13;3.22;;;;;;;15.78;55.20;102395.50;4994420;28;20649;-68
2021/07/17 01:18:30;;;;;;;15.50;2.90;;;;;;;15.71;55.34;102391.38;5011251;28;20033;-68
2021/07/17 01:20:57;;;;;;;18.60;2.92;;;;;;;15.79;55.13;102399.84;4991671;28;20042;-68
2021/07/17 01:23:22;;;;;;;16.85;1.95;;;;;;;15.82;54.93;102399.75;5005568;28;20049;-68
2021/07/17 01:25:48;;;;;;;16.83;2.35;;;;;;;15.86;54.93;102395.19;5012970;28;20029;-68
2021/07/17 01:28:13;;;;;;;17.77;2.30;;;;;;;15.91;54.72;102399.38;4991920;28;20115;-68
2021/07/17 01:30:39;;;;;;;10.07;2.50;;;;;;;15.75;54.94;102391.19;5012185;28;20542;-68
2021/07/17 01:33:06;;;;;;;17.50;2.88;;;;;;;15.80;55.01;102396.31;5009636;28;20037;-68
2021/07/17 01:35:32;;;;;;;23.27;3.65;;;;;;;15.62;55.40;102391.69;4994434;28;20030;-68
2021/07/17 01:37:57;;;;;;;17.70;2.78;;;;;;;15.69;55.13;102395.84;5009990;28;20121;-67
2021/07/17 01:40:23;;;;;;;12.50;2.95;;;;;;;15.51;55.86;102400.88;5012463;28;20045;-68
2021/07/17 01:42:52;;;;;;;17.45;3.33;;;;;;;15.54;55.40;102392.84;5008178;28;20049;-67
2021/07/17 01:45:30;;;;;;;10.93;2.42;;;;;;;15.70;55.14;102401.03;4990445;28;20034;-68
2021/07/17 01:47:56;;;;;;;24.10;3.08;;;;;;;15.81;54.73;102400.63;4978680;28;20058;-68
2021/07/17 01:50:24;;;;;;;13.63;2.03;;;;;;;15.64;55.24;102405.69;4989769;28;20088;-68
2021/07/17 01:52:50;;;;;;;17.98;3.08;;;;;;;15.38;55.68;102404.88;5007386;28;20034;-68
2021/07/17 01:55:17;;;;;;;16.23;3.85;;;;;;;15.78;54.88;102403.41;4993370;28;20041;-68
2021/07/17 01:57:45;;;;;;;9.80;1.98;;;;;;;15.84;54.49;102402.28;4982482;28;20566;-68
2021/07/17 02:00:11;;;;;;;15.10;2.55;;;;;;;15.61;55.20;102395.25;4996556;28;20125;-67
2021/07/17 02:02:36;;;;;;;19.13;3.10;;;;;;;15.51;55.45;102400.03;4997964;28;20192;-68
2021/07/17 02:05:04;;;;;;;11.73;2.05;;;;;;;15.57;55.28;102400.66;5013591;28;20056;-68
2021/07/17 02:07:29;;;;;;;10.82;2.53;;;;;;;15.33;55.75;102397.13;5012549;28;20029;-68
2021/07/17 02:09:55;;;;;;;13.80;2.35;;;;;;;15.43;55.77;102392.38;5033970;28;20036;-68
2021/07/17 02:12:20;;;;;;;12.52;3.17;;;;;;;15.56;55.30;102393.66;5011401;28;20443;-68
2021/07/17 02:14:49;;;;;;;12.93;2.65;;;;;;;15.41;56.24;102390.72;5027213;28;20411;-67
2021/07/17 02:17:15;;;;;;;21.20;2.97;;;;;;;15.39;56.32;102396.03;5028550;28;20025;-67
2021/07/17 02:19:40;;;;;;;15.20;2.33;;;;;;;15.55;55.88;102388.44;5017151;28;20037;-68
2021/07/17 02:22:06;;;;;;;15.00;2.90;;;;;;;15.47;56.02;102387.88;5029853;28;20033;-68
2021/07/17 02:24:31;;;;;;;10.98;1.90;;;;;;;15.32;56.37;102390.13;5029599;28;20056;-68
2021/07/17 02:26:57;;;;;;;10.15;1.98;;;;;;;15.58;55.62;102385.69;5011596;28;20033;-67
2021/07/17 02:29:24;;;;;;;10.70;2.53;;;;;;;15.65;55.64;102389.81;5030702;28;20029;-67
2021/07/17 02:31:49;;;;;;;18.05;2.53;;;;;;;15.53;55.88;102388.50;5012667;28;20560;-67
2021/07/17 02:34:15;;;;;;;12.05;2.22;;;;;;;15.53;55.94;102399.06;5029193;28;20041;-67
2021/07/17 02:36:41;;;;;;;20.60;2.58;;;;;;;15.55;55.91;102391.06;5029800;28;20052;-67
2021/07/17 02:39:08;;;;;;;8.70;1.80;;;;;;;15.32;56.35;102395.41;5025670;28;20033;-68
2021/07/17 02:41:34;;;;;;;18.08;2.22;;;;;;;15.47;56.10;102401.91;5026637;28;20494;-67
2021/07/17 02:43:59;;;;;;;8.80;2.42;;;;;;;15.22;56.82;102394.03;5030462;28;20091;-67
2021/07/17 02:46:26;;;;;;;15.07;3.00;;;;;;;15.65;55.38;102391.59;5010819;28;20456;-68
2021/07/17 02:48:51;;;;;;;10.40;2.05;;;;;;;15.66;55.20;102401.22;5009626;28;20669;-68
2021/07/17 02:51:17;;;;;;;11.95;2.05;;;;;;;15.54;55.67;102397.25;5029704;28;20132;-67
2021/07/17 02:53:42;;;;;;;13.55;2.38;;;;;;;15.37;56.38;102398.75;5010037;28;20079;-67
2021/07/17 02:56:08;;;;;;;8.75;1.80;;;;;;;15.32;56.66;102405.09;5013180;28;20120;-67
2021/07/17 02:58:33;;;;;;;10.98;2.28;;;;;;;15.25;56.54;102399.19;5014322;28;20099;-68
2021/07/17 03:00:59;;;;;;;13.10;2.83;;;;;;;15.36;56.33;102406.69;5030068;28;20068;-68
2021/07/17 03:03:25;;;;;;;12.30;3.13;;;;;;;15.41;56.26;102407.38;5026972;28;20595;-68
2021/07/17 03:05:50;;;;;;;15.57;3.42;;;;;;;15.46;55.79;102407.22;4997011;28;20040;-68
2021/07/17 03:08:21;;;;;;;13.23;2.78;;;;;;;15.48;55.88;102415.94;5027494;28;20120;-68
2021/07/17 03:10:46;;;;;;;15.45;3.38;;;;;;;15.21;56.71;102418.59;5012546;28;20041;-67
2021/07/17 03:13:12;;;;;;;15.80;2.85;;;;;;;15.35;56.15;102412.91;5015252;28;20041;-67
2021/07/17 03:15:38;;;;;;;16.58;2.95;;;;;;;15.51;55.54;102416.69;5028385;28;20394;-67
2021/07/17 03:18:03;;;;;;;14.93;2.90;;;;;;;15.22;56.75;102412.47;5012364;28;20034;-68
2021/07/17 03:20:29;;;;;;;13.10;2.50;;;;;;;15.51;55.54;102414.06;5027801;28;20053;-68
2021/07/17 03:22:55;;;;;;;19.60;1.98;;;;;;;15.45;55.51;102409.00;5012971;28;20124;-68
2021/07/17 03:25:20;;;;;;;20.48;2.60;;;;;;;15.29;55.88;102407.84;5011494;28;20561;-68
2021/07/17 03:27:46;;;;;;;18.10;2.65;;;;;;;15.41;55.50;102402.13;5000850;28;20952;-69
2021/07/17 03:30:12;;;;;;;14.98;2.92;;;;;;;15.46;55.70;102401.94;5027441;28;20393;-68
2021/07/17 03:32:38;;;;;;;16.88;2.42;;;;;;;15.46;55.60;102408.09;5025321;28;20124;-67
2021/07/17 03:35:04;;;;;;;19.55;2.55;;;;;;;15.51;55.46;102400.88;5027121;28;20120;-67
2021/07/17 03:37:29;;;;;;;16.75;2.40;;;;;;;15.40;55.60;102410.09;5009082;28;20395;-67
2021/07/17 03:39:55;;;;;;;8.25;1.92;;;;;;;15.38;55.34;102403.09;5027235;28;20035;-67
2021/07/17 03:42:20;;;;;;;15.95;2.58;;;;;;;15.39;55.54;102401.31;5026659;28;20087;-67
2021/07/17 03:44:46;;;;;;;13.98;1.58;;;;;;;15.24;55.66;102402.75;5021961;28;20037;-68
2021/07/17 03:47:11;;;;;;;5.00;1.20;;;;;;;15.10;56.11;102400.56;5028151;28;20039;-69
2021/07/17 03:49:37;;;;;;;8.65;2.28;;;;;;;15.42;55.11;102403.00;5027038;28;20072;-68
2021/07/17 03:52:03;;;;;;;10.25;2.15;;;;;;;15.29;55.56;102405.22;5027281;28;20490;-68
2021/07/17 03:54:29;;;;;;;10.25;1.67;;;;;;;15.47;55.04;102407.16;5016793;28;20053;-68
2021/07/17 03:56:55;;;;;;;12.73;1.80;;;;;;;15.46;55.30;102413.38;5027178;28;20065;-68
2021/07/17 03:59:20;;;;;;;14.98;3.42;;;;;;;15.38;55.38;102411.00;5011837;28;20029;-67
2021/07/17 04:01:46;;;;;;;17.27;3.13;;;;;;;15.66;54.79;102403.84;5018119;28;20087;-67
2021/07/17 04:04:13;;;;;;;11.95;2.65;;;;;;;15.55;54.78;102407.75;5010081;28;20102;-68
2021/07/17 04:06:40;;;;;;;11.40;1.95;;;;;;;15.62;54.71;102408.41;5029990;28;20060;-68
2021/07/17 04:09:06;;;;;;;9.70;1.75;;;;;;;15.63;54.79;102410.09;4991811;28;20033;-67
2021/07/17 04:11:31;;;;;;;14.27;2.75;;;;;;;15.86;54.21;102411.84;5010926;28;20021;-67
2021/07/17 04:13:57;;;;;;;9.05;1.95;;;;;;;15.93;53.90;102415.13;5029840;28;20971;-67
2021/07/17 04:16:22;;;;;;;15.98;2.53;;;;;;;15.87;54.33;102418.00;5021086;28;20033;-67
2021/07/17 04:18:48;;;;;;;13.32;2.65;;;;;;;15.77;54.67;102413.09;5031169;28;20057;-68
2021/07/17 04:21:13;;;;;;;8.38;1.73;;;;;;;15.80;54.52;102412.97;5017154;28;20068;-68
2021/07/17 04:23:40;;;;;;;9.20;2.28;;;;;;;15.90;54.40;102409.97;5030291;28;20025;-67
2021/07/17 04:26:08;;;;;;;12.10;2.05;;;;;;;15.96;54.67;102401.84;5028883;28;20037;-67
2021/07/17 04:28:35;;;;;;;11.05;1.98;;;;;;;16.24;53.64;102406.06;5029408;28;20021;-67
2021/07/17 04:31:01;;;;;;;6.88;1.85;;;;;;;16.26;53.83;102412.97;4997512;28;20457;-67
2021/07/17 04:33:27;;;;;;;8.60;2.28;;;;;;;16.21;53.75;102401.75;5029867;28;20518;-68
2021/07/17 04:35:52;;;;;;;16.55;3.25;;;;;;;16.19;53.62;102404.44;5034438;28;20048;-67
2021/07/17 04:38:18;;;;;;;8.57;1.58;;;;;;;16.11;54.09;102410.97;5031776;28;20037;-67
2021/07/17 04:40:43;;;;;;;7.32;1.20;;;;;;;16.22;53.68;102414.06;5014093;28;20120;-67
2021/07/17 04:43:09;;;;;;;8.90;2.53;;;;;;;16.30;53.18;102414.59;5033323;28;20037;-68
2021/07/17 04:45:34;;;;;;;18.30;2.55;;;;;;;16.46;52.81;102420.09;5031115;28;20037;-68
2021/07/17 04:48:04;;;;;;;6.30;1.65;;;;;;;16.50;52.77;102413.78;5014655;28;20600;-68
2021/07/17 04:50:34;;;;;;;8.65;1.95;;;;;;;16.59;52.57;102423.09;5029123;28;20059;-69
2021/07/17 04:52:59;;;;;;;6.55;1.08;;;;;;;16.54;52.72;102415.38;5012633;28;20454;-67
2021/07/17 04:55:28;;;;;;;3.88;1.48;;;;;;;16.32;53.17;102420.66;5012680;28;20124;-67
2021/07/17 04:57:53;;;;;;;12.13;1.50;;;;;;;16.55;52.48;102421.50;5030387;28;20116;-68
2021/07/17 05:00:19;;;;;;;11.30;1.73;;;;;;;16.62;52.15;102428.25;5015253;28;20467;-68
2021/07/17 05:02:53;;;;;;;10.50;1.77;;;;;;;16.60;51.74;102430.13;5030810;28;20042;-67
2021/07/17 05:05:20;;;;;;;7.30;1.17;;;;;;;17.89;48.83;102415.72;5030202;28;20033;-68
2021/07/17 05:07:47;;;;;;;12.90;1.40;;;;;;;19.32;45.24;102414.81;5028061;28;20052;-67
2021/07/17 05:10:15;;;;;;;9.65;1.85;;;;;;;20.23;42.92;102423.19;5009789;28;20502;-67
2021/07/17 05:12:41;;;;;;;10.40;1.73;;;;;;;20.97;41.68;102421.56;5029488;28;20078;-67
2021/07/17 05:15:08;;;;;;;5.07;1.15;;;;;;;21.45;40.12;102417.72;5030694;28;22941;-67
2021/07/17 05:17:34;;;;;;;16.48;1.10;;;;;;;21.90;39.58;102425.59;5016701;28;20031;-68
2021/07/17 05:20:00;;;;;;;8.63;0.85;;;;;;;22.12;38.83;102425.94;5028332;28;20033;-68
2021/07/17 05:22:25;;;;;;;6.97;1.00;;;;;;;22.20;38.41;102421.91;5011734;28;20056;-68
2021/07/17 05:24:51;;;;;;;14.20;1.17;;;;;;;22.46;38.23;102429.03;5012136;28;20053;-68
2021/07/17 05:27:16;;;;;;;8.07;1.10;;;;;;;22.28;37.75;102424.94;5030337;28;20496;-68
2021/07/17 05:29:41;;;;;;;4.53;0.95;;;;;;;22.11;38.42;102424.22;5009171;28;20092;-68
2021/07/17 05:32:07;;;;;;;7.30;1.60;;;;;;;22.36;38.21;102433.25;5014685;28;20033;-67
2021/07/17 05:34:32;;;;;;;14.35;1.35;;;;;;;22.51;37.72;102429.56;5013968;28;20029;-68
2021/07/17 05:36:58;;;;;;;9.38;1.73;;;;;;;23.10;36.46;102428.34;5016141;28;20037;-68
2021/07/17 05:39:23;;;;;;;10.43;1.27;;;;;;;23.35;36.36;102433.69;4996196;28;20398;-68
2021/07/17 05:41:49;;;;;;;10.45;1.60;;;;;;;23.80;35.82;102434.00;5032609;28;20041;-68
2021/07/17 05:44:14;;;;;;;13.35;2.00;;;;;;;23.80;35.08;102438.50;5031052;28;20079;-68
2021/07/17 05:46:40;;;;;;;7.78;1.08;;;;;;;23.78;34.83;102435.94;5033656;28;20037;-68
2021/07/17 05:49:05;;;;;;;7.03;1.25;;;;;;;23.29;36.05;102434.09;5011949;28;20022;-68
2021/07/17 05:51:31;;;;;;;7.18;1.48;;;;;;;23.85;34.29;102444.38;5011975;28;20025;-68
2021/07/17 05:53:56;;;;;;;7.22;1.20;;;;;;;24.03;34.63;102440.41;5030442;28;20056;-68
2021/07/17 05:56:22;;;;;;;9.50;1.13;;;;;;;24.75;33.68;102436.84;5015409;28;20032;-67
2021/07/17 05:58:47;;;;;;;5.15;2.00;;;;;;;25.07;32.99;102430.00;5030229;28;20037;-68
2021/07/17 06:01:13;;;;;;;3.30;0.93;;;;;;;24.70;33.17;102432.81;5026754;28;20552;-69
2021/07/17 06:03:41;;;;;;;6.82;0.95;;;;;;;25.04;32.10;102441.81;5027478;28;20044;-68
2021/07/17 06:06:07;;;;;;;10.48;0.93;;;;;;;24.79;32.20;102448.16;5029494;28;20345;-69
2021/07/17 06:08:32;;;;;;;4.03;0.70;;;;;;;25.50;31.38;102456.06;5028915;28;20985;-69
2021/07/17 06:10:58;;;;;;;10.55;0.85;;;;;;;25.28;31.85;102446.19;5010598;28;20037;-69
2021/07/17 06:13:23;;;;;;;6.40;0.82;;;;;;;24.77;32.74;102445.59;5015808;28;20040;-69
2021/07/17 06:15:49;;;;;;;3.22;0.75;;;;;;;24.92;32.65;102454.25;5030049;28;20029;-68
2021/07/17 06:18:14;;;;;;;6.65;0.70;;;;;;;25.82;31.83;102459.72;5009319;28;20506;-69
2021/07/17 06:20:40;;;;;;;7.68;1.33;;;;;;;26.42;29.98;102456.63;5028174;28;20040;-70
2021/07/17 06:23:05;;;;;;;6.95;1.20;;;;;;;25.97;30.77;102454.06;4998707;28;20059;-70
2021/07/17 06:25:31;;;;;;;5.57;1.00;;;;;;;26.47;29.83;102457.13;5013325;28;20026;-70
2021/07/17 06:27:56;;;;;;;5.60;1.23;;;;;;;26.32;30.57;102461.09;5013141;28;20391;-69
2021/07/17 06:30:22;;;;;;;6.35;0.70;;;;;;;27.74;29.04;102466.78;5030053;28;20387;-70
2021/07/17 06:32:48;;;;;;;8.85;1.30;;;;;;;27.72;27.94;102472.31;5032273;28;20039;-70
2021/07/17 06:35:13;;;;;;;8.13;0.85;;;;;;;26.86;29.74;102476.22;5012210;28;20071;-69
2021/07/17 06:37:42;;;;;;;10.18;1.77;;;;;;;26.56;29.90;102466.19;5012717;28;20045;-69
2021/07/17 06:40:10;;;;;;;4.78;0.93;;;;;;;27.04;28.71;102474.63;5014401;28;20033;-69
2021/07/17 06:42:44;;;;;;;10.00;0.88;;;;;;;27.34;28.29;102472.13;5009277;28;20040;-70
2021/07/17 06:45:10;;;;;;;5.35;0.65;;;;;;;27.67;28.04;102476.38;4998938;28;20048;-70
2021/07/17 06:47:36;;;;;;;11.43;0.90;;;;;;;26.97;28.51;102489.56;5009369;28;20082;-70
2021/07/17 06:50:03;;;;;;;11.95;1.35;;;;;;;26.29;29.33;102478.28;5027440;28;20759;-70
2021/07/17 06:52:28;;;;;;;12.60;1.48;;;;;;;27.01;29.21;102479.41;5027355;28;20067;-69
2021/07/17 06:54:53;;;;;;;5.70;1.08;;;;;;;26.52;29.24;102476.34;5014980;28;20123;-69
2021/07/17 06:57:19;;;;;;;5.45;0.85;;;;;;;26.94;28.56;102479.09;5013897;28;20033;-69
2021/07/17 06:59:44;;;;;;;6.25;0.85;;;;;;;26.82;29.08;102480.13;5025730;28;20026;-68
2021/07/17 07:02:10;;;;;;;6.88;0.50;;;;;;;27.24;28.17;102488.19;5028896;28;20474;-69
2021/07/17 07:04:35;;;;;;;6.45;1.00;;;;;;;26.94;28.36;102479.09;5030115;28;20128;-69
2021/07/17 07:07:01;;;;;;;8.77;1.40;;;;;;;27.49;28.19;102485.03;5028842;28;20033;-69
2021/07/17 07:09:26;;;;;;;7.63;0.45;;;;;;;27.75;27.53;102481.09;5031649;28;20103;-70
2021/07/17 07:11:52;;;;;;;3.90;1.05;;;;;;;27.15;27.93;102492.53;5031445;28;20398;-69
2021/07/17 07:14:18;;;;;;;4.45;0.68;;;;;;;27.84;27.84;102494.53;5009957;28;20072;-69
2021/07/17 07:16:43;;;;;;;9.25;1.30;;;;;;;27.54;28.69;102495.41;5027030;28;20040;-69
2021/07/17 07:19:09;;;;;;;9.25;0.95;;;;;;;27.72;28.42;102503.72;5029205;28;20086;-69
2021/07/17 07:21:35;;;;;;;4.20;0.50;;;;;;;27.17;28.54;102508.50;5028327;28;20059;-70
2021/07/17 07:24:00;;;;;;;6.80;0.50;;;;;;;27.30;28.31;102503.78;5011053;28;20041;-68
2021/07/17 07:26:26;;;;;;;4.05;0.98;;;;;;;27.72;27.65;102501.03;5028743;28;20064;-69
2021/07/17 07:28:56;;;;;;;6.28;0.40;;;;;;;27.91;27.49;102510.97;5028057;28;20092;-70
2021/07/17 07:31:22;;;;;;;3.78;0.70;;;;;;;28.18;26.42;102502.28;5027079;28;20044;-69
2021/07/17 07:33:47;;;;;;;6.72;0.50;;;;;;;27.88;26.78;102509.41;5018547;28;20044;-69
2021/07/17 07:36:13;;;;;;;5.65;1.15;;;;;;;28.81;26.05;102503.72;5005984;28;20045;-70
2021/07/17 07:38:39;;;;;;;7.43;0.95;;;;;;;28.89;26.49;102506.56;5011683;28;20035;-69
2021/07/17 07:41:04;;;;;;;4.85;0.38;;;;;;;28.27;26.79;102512.19;5027406;28;20044;-70
2021/07/17 07:43:30;;;;;;;6.80;0.85;;;;;;;28.67;26.01;102508.56;5027469;28;20111;-68
2021/07/17 07:45:56;;;;;;;3.50;0.73;;;;;;;28.49;26.25;102515.63;5010124;28;20038;-68
2021/07/17 07:48:22;;;;;;;3.63;0.88;;;;;;;28.73;26.10;102508.00;5010795;28;20175;-69
2021/07/17 07:50:47;;;;;;;4.57;0.70;;;;;;;29.12;25.58;102512.50;5005061;28;20056;-69
2021/07/17 07:53:13;;;;;;;5.57;0.73;;;;;;;28.81;26.10;102503.72;5034262;28;20058;-69
2021/07/17 07:55:38;;;;;;;5.53;0.80;;;;;;;29.54;25.66;102504.84;5031064;28;20029;-69
2021/07/17 07:58:04;;;;;;;3.08;0.55;;;;;;;30.34;24.75;102509.66;5032340;28;20045;-69
2021/07/17 08:00:29;;;;;;;4.35;0.65;;;;;;;29.90;24.06;102515.75;5032059;28;20057;-70
2021/07/17 08:02:55;;;;;;;8.43;0.70;;;;;;;29.93;24.35;102517.28;5029714;28;20034;-70
2021/07/17 08:05:21;;;;;;;4.97;0.75;;;;;;;29.54;25.26;102512.06;5016559;28;20060;-70
2021/07/17 08:07:47;;;;;;;5.78;0.60;;;;;;;29.93;24.73;102520.84;5032485;28;20688;-69
2021/07/17 08:10:13;;;;;;;3.72;0.38;;;;;;;30.11;23.93;102522.72;5015714;28;20041;-70
2021/07/17 08:12:38;;;;;;;3.47;0.63;;;;;;;28.89;24.56;102517.31;5011121;28;20145;-70
2021/07/17 08:15:04;;;;;;;5.45;0.68;;;;;;;28.57;25.50;102510.38;5031899;28;20562;-69
2021/07/17 08:17:30;;;;;;;8.35;1.00;;;;;;;29.63;25.24;102516.59;5010437;28;20040;-70
2021/07/17 08:19:55;;;;;;;7.75;1.02;;;;;;;28.92;25.20;102517.03;5013057;28;20067;-70
2021/07/17 08:22:21;;;;;;;4.90;1.05;;;;;;;28.60;26.03;102518.16;5011368;28;20375;-69
2021/07/17 08:24:46;;;;;;;8.18;0.55;;;;;;;29.31;24.89;102516.97;5030028;28;20069;-69
2021/07/17 08:27:12;;;;;;;2.65;0.30;;;;;;;29.78;24.41;102525.03;5034688;28;20041;-69
2021/07/17 08:29:37;;;;;;;7.28;0.75;;;;;;;28.65;25.58;102524.00;5031184;28;20053;-69
2021/07/17 08:32:03;;;;;;;4.85;0.60;;;;;;;28.41;25.87;102518.16;5013471;28;20036;-69
2021/07/17 08:34:28;;;;;;;8.63;0.90;;;;;;;28.61;25.55;102525.22;5028671;28;20025;-69
2021/07/17 08:36:54;;;;;;;3.05;0.35;;;;;;;28.75;25.77;102522.16;5015928;28;20340;-69
2021/07/17 08:39:19;;;;;;;6.78;0.60;;;;;;;30.03;24.47;102533.41;5013409;28;20044;-71
2021/07/17 08:41:50;;;;;;;5.50;0.93;;;;;;;30.33;24.05;102530.41;5011838;28;20037;-70
2021/07/17 08:44:17;;;;;;;7.63;0.82;;;;;;;29.64;24.13;102528.22;5020181;28;20116;-70
2021/07/17 08:46:45;;;;;;;6.90;0.95;;;;;;;28.69;26.09;102538.03;5028930;28;20135;-69
2021/07/17 08:49:11;;;;;;;2.67;0.68;;;;;;;28.25;27.32;102534.81;5030128;28;20029;-69
2021/07/17 08:51:38;;;;;;;3.80;0.45;;;;;;;29.71;25.02;102529.34;5027364;28;20529;-69
2021/07/17 08:54:04;;;;;;;6.57;0.50;;;;;;;29.74;24.39;102529.88;5024750;28;20434;-71
2021/07/17 08:56:31;;;;;;;4.97;0.40;;;;;;;29.83;24.59;102535.38;5012107;28;20044;-70
2021/07/17 08:58:56;;;;;;;4.30;0.40;;;;;;;29.86;24.82;102535.91;5018500;28;20067;-70
2021/07/17 09:01:22;;;;;;;6.43;0.40;;;;;;;29.36;24.67;102538.94;5029274;28;20072;-69
2021/07/17 09:03:48;;;;;;;4.78;0.40;;;;;;;29.31;25.20;102541.22;5028817;28;20038;-69
2021/07/17 09:06:14;;;;;;;5.93;0.40;;;;;;;29.82;25.19;102529.13;5026571;28;20033;-68
2021/07/17 09:08:39;;;;;;;4.88;0.30;;;;;;;29.51;24.91;102536.63;5027486;28;20495;-68
2021/07/17 09:11:05;;;;;;;3.70;0.80;;;;;;;28.11;26.40;102538.75;5028518;28;20791;-69
2021/07/17 09:13:35;;;;;;;8.02;0.30;;;;;;;28.09;26.92;102535.34;5027748;28;20045;-69
2021/07/17 09:16:07;;;;;;;1.92;0.30;;;;;;;28.92;26.07;102527.78;5034931;28;20514;-69
2021/07/17 09:18:46;;;;;;;5.35;0.50;;;;;;;28.36;26.79;102533.88;5028514;28;20034;-69
2021/07/17 09:21:17;;;;;;;8.20;0.77;;;;;;;28.08;27.06;102530.97;5009458;28;20033;-69
2021/07/17 09:23:54;;;;;;;3.92;0.85;;;;;;;28.68;26.30;102525.53;4999440;28;20099;-70
2021/07/17 09:26:22;;;;;;;3.30;0.30;;;;;;;27.65;27.27;102521.31;5010103;28;20538;-69
2021/07/17 09:28:55;;;;;;;2.42;0.38;;;;;;;27.10;28.79;102533.16;5025859;28;20507;-69
2021/07/17 09:31:22;;;;;;;3.83;0.47;;;;;;;26.56;28.90;102531.41;5009827;28;20434;-69
2021/07/17 09:33:51;;;;;;;6.50;1.58;;;;;;;26.04;30.08;102524.94;5027060;28;20056;-69
2021/07/17 09:36:18;;;;;;;3.22;0.40;;;;;;;26.20;29.46;102528.13;5013931;28;20033;-71
2021/07/17 09:38:51;;;;;;;2.03;0.47;;;;;;;25.68;32.02;102527.75;4993350;28;20045;-69
2021/07/17 09:41:18;;;;;;;3.22;0.30;;;;;;;25.66;31.12;102526.16;5012337;28;20032;-70
2021/07/17 09:43:43;;;;;;;3.42;0.35;;;;;;;25.18;31.78;102529.00;5026366;28;20033;-69
2021/07/17 09:46:23;;;;;;;2.33;0.17;;;;;;;24.63;33.31;102524.16;5028297;28;20217;-69
2021/07/17 09:48:52;;;;;;;3.15;0.55;;;;;;;25.27;31.85;102522.94;5029180;28;20118;-69
2021/07/17 09:51:45;;;;;;;2.35;0.57;;;;;;;24.77;32.87;102530.28;5027818;28;21021;-68
2021/07/17 09:54:10;;;;;;;3.78;0.30;;;;;;;24.83;34.05;102524.50;5025354;28;20068;-69
2021/07/17 09:56:40;;;;;;;1.65;0.40;;;;;;;24.53;33.12;102527.66;5014713;28;20123;-69
2021/07/17 09:59:08;;;;;;;2.13;0.35;;;;;;;24.53;32.89;102530.31;5024518;28;20028;-68
2021/07/17 10:01:39;;;;;;;2.42;0.30;;;;;;;24.48;34.21;102525.31;5002338;28;20364;-68
2021/07/17 10:04:08;;;;;;;2.88;0.52;;;;;;;24.49;33.37;102532.34;5029862;28;20033;-70
2021/07/17 10:06:41;;;;;;;9.48;0.70;;;;;;;24.33;33.56;102537.09;5015102;28;20049;-70
2021/07/17 10:09:12;;;;;;;1.67;0.40;;;;;;;24.88;31.99;102533.00;5012803;28;20545;-71
2021/07/17 10:11:39;;;;;;;3.20;0.30;;;;;;;25.18;32.94;102534.38;5023836;28;20483;-69
2021/07/17 10:14:15;;;;;;;1.85;0.20;;;;;;;24.10;33.49;102528.94;5013801;28;20075;-69
2021/07/17 10:16:40;;;;;;;3.03;0.60;;;;;;;24.59;33.14;102533.41;5011226;28;20033;-69
2021/07/17 10:19:06;;;;;;;2.33;0.30;;;;;;;24.83;33.12;102524.50;5026655;28;20190;-69
2021/07/17 10:21:31;;;;;;;6.78;0.70;;;;;;;24.89;32.92;102529.38;5029274;28;20030;-69
2021/07/17 10:23:59;;;;;;;6.63;0.73;;;;;;;24.84;33.12;102528.88;5030016;28;20045;-69
2021/07/17 10:26:24;;;;;;;5.20;0.52;;;;;;;25.00;32.91;102532.13;5028440;28;20029;-69
2021/07/17 10:28:53;;;;;;;1.90;0.65;;;;;;;23.97;33.66;102531.63;5029526;28;20041;-68
2021/07/17 10:31:19;;;;;;;5.28;0.50;;;;;;;23.82;34.76;102538.88;5029594;28;20697;-68
2021/07/17 10:33:51;;;;;;;2.97;0.28;;;;;;;24.01;34.10;102533.13;5086962;27;20400;-68
2021/07/17 10:36:17;;;;;;;4.10;0.50;;;;;;;23.88;34.71;102531.41;5065225;28;21543;-68
2021/07/17 10:38:44;;;;;;;4.18;0.70;;;;;;;24.45;34.20;102530.88;5072075;28;20176;-69
2021/07/17 10:41:14;;;;;;;5.10;0.22;;;;;;;24.18;34.46;102529.22;5070528;28;20607;-69
2021/07/17 10:43:41;;;;;;;3.50;0.50;;;;;;;23.88;34.88;102529.63;5066647;28;20507;-70
2021/07/17 10:46:28;;;;;;;2.17;0.50;;;;;;;24.20;34.05;102527.28;5066131;28;20107;-69
2021/07/17 10:48:56;;;;;;;2.42;0.20;;;;;;;24.11;34.13;102519.94;5067757;28;20098;-69
2021/07/17 10:51:27;;;;;;;3.78;0.30;;;;;;;24.36;34.91;102527.03;5068585;28;20586;-69
2021/07/17 10:53:54;;;;;;;;;;;;;;;24.96;34.17;102525.25;5068331;28;20431;-69
2021/07/17 10:56:28;;;;;;;7.30;0.50;;;;;;;24.98;33.10;102512.66;5067007;28;19996;-69
2021/07/17 10:58:59;;;;;;;4.13;0.38;;;;;;;24.39;34.73;102517.94;5066067;28;20116;-68
2021/07/17 11:01:26;;;;;;;4.07;0.38;;;;;;;24.33;34.19;102521.91;5065886;28;20501;-69
2021/07/17 11:03:53;;;;;;;3.40;0.50;;;;;;;24.61;34.03;102519.91;5073624;28;20057;-69
2021/07/17 11:06:21;;;;;;;3.10;0.60;;;;;;;24.31;34.00;102521.19;5066850;28;20119;-69
2021/07/17 11:08:47;;;;;;;1.52;0.80;;;;;;;24.55;33.68;102526.56;5066608;28;20036;-69
2021/07/17 11:11:28;;;;;;;2.47;0.82;;;;;;;24.35;35.01;102529.84;5069238;28;20036;-69
2021/07/17 11:13:54;;;;;;;2.75;0.20;;;;;;;24.42;34.04;102536.47;5071332;28;20580;-69
2021/07/17 11:16:43;;;;;;;1.02;0.25;;;;;;;25.24;32.21;102528.50;5050685;28;20135;-68
2021/07/17 11:19:15;;;;;;;3.17;0.40;;;;;;;24.65;34.12;102522.22;5068588;28;20017;-70